createdAt,value
2022-08-05T00:01:27.613Z,23.20
2022-08-05T00:06:33.372Z,22.70
2022-08-05T00:11:47.323Z,22.70
2022-08-05T00:16:52.448Z,22.80
2022-08-05T00:21:56.967Z,22.40
2022-08-05T00:27:00.832Z,22.50
2022-08-05T00:32:13.170Z,22.40
2022-08-05T00:37:17.740Z,22.40
2022-08-05T00:42:34.467Z,22.50
2022-08-05T00:47:56.657Z,22.00
2022-08-05T00:52:59.512Z,22.40
2022-08-05T00:58:02.148Z,22.40
2022-08-05T01:03:07.860Z,21.80
2022-08-05T01:08:42.323Z,21.60
2022-08-05T01:13:59.767Z,21.40
2022-08-05T01:19:56.508Z,21.50
2022-08-05T01:25:41.079Z,22.00
2022-08-05T01:31:08.726Z,22.50
2022-08-05T01:36:16.192Z,22.40
2022-08-05T01:41:25.573Z,22.10
2022-08-05T01:46:42.352Z,22.40
2022-08-05T01:51:51.928Z,22.50
2022-08-05T01:58:11.867Z,22.60
2022-08-05T02:02:28.512Z,22.60
2022-08-05T02:07:33.749Z,22.50
2022-08-05T02:12:55.698Z,23.00
2022-08-05T02:18:30.569Z,22.70
2022-08-05T02:23:40.071Z,21.90
2022-08-05T02:28:45.679Z,20.00
2022-08-05T02:33:57.721Z,19.40
2022-08-05T02:39:04.358Z,18.90
2022-08-05T02:44:13.846Z,20.10
2022-08-05T02:49:17.484Z,21.00
2022-08-05T02:54:34.822Z,20.90
2022-08-05T02:59:48.092Z,21.70
2022-08-05T03:04:55.200Z,22.30
2022-08-05T03:09:57.750Z,22.70
2022-08-05T03:15:00.289Z,22.70
2022-08-05T03:20:03.634Z,22.60
2022-08-05T03:25:31.717Z,22.70
2022-08-05T03:30:33.578Z,22.70
2022-08-05T03:35:41.121Z,22.90
2022-08-05T03:40:48.619Z,22.90
2022-08-05T03:45:58.117Z,22.30
2022-08-05T03:52:38.911Z,22.20
2022-08-05T03:56:46.242Z,21.50
2022-08-05T04:01:51.888Z,21.60
2022-08-05T04:06:55.465Z,21.60
2022-08-05T04:11:59.157Z,21.40
2022-08-05T04:17:03.134Z,21.10
2022-08-05T04:22:09.221Z,21.20
2022-08-05T04:27:15.311Z,21.10
2022-08-05T04:32:20.155Z,20.90
2022-08-05T04:38:02.541Z,20.80
2022-08-05T04:42:56.150Z,20.70
2022-08-05T04:48:04.755Z,20.70
2022-08-05T04:53:08.510Z,21.20
2022-08-05T04:58:13.634Z,21.20
2022-08-05T05:03:22.561Z,21.30
2022-08-05T05:08:26.565Z,21.60
2022-08-05T05:13:43.357Z,21.70
2022-08-05T05:19:08.939Z,21.80
2022-08-05T05:24:09.030Z,21.70
2022-08-05T05:29:14.752Z,21.70
2022-08-05T05:34:21.160Z,21.20
2022-08-05T05:39:26.598Z,20.70
2022-08-05T05:44:37.694Z,20.90
2022-08-05T05:49:45.735Z,20.70
2022-08-05T05:55:13.636Z,20.80
2022-08-05T06:00:19.457Z,20.70
2022-08-05T06:05:22.535Z,20.50
2022-08-05T06:10:25.061Z,20.80
2022-08-05T06:16:30.954Z,20.80
2022-08-05T06:20:54.347Z,20.90
2022-08-05T06:26:12.684Z,20.20
2022-08-05T06:31:21.884Z,20.20
2022-08-05T06:36:25.955Z,20.10
2022-08-05T06:41:28.474Z,20.00
2022-08-05T06:46:37.064Z,20.10
2022-08-05T06:51:40.672Z,19.90
2022-08-05T06:56:54.872Z,19.90
2022-08-05T07:02:06.354Z,21.10
2022-08-05T07:07:08.902Z,20.10
2022-08-05T07:12:31.259Z,19.70
2022-08-05T07:18:02.424Z,19.30
2022-08-05T07:22:56.012Z,19.00
2022-08-05T07:28:03.813Z,19.10
2022-08-05T07:33:15.931Z,19.00
2022-08-05T07:38:32.439Z,18.70
2022-08-05T07:43:37.298Z,18.20
2022-08-05T07:49:01.863Z,18.40
2022-08-05T07:54:02.078Z,18.50
2022-08-05T07:59:04.357Z,18.50
2022-08-05T08:04:10.857Z,18.60
2022-08-05T08:09:13.617Z,18.70
2022-08-05T08:14:19.189Z,18.00
2022-08-05T08:20:44.014Z,17.90
2022-08-05T08:24:51.370Z,18.00
2022-08-05T08:30:06.501Z,18.30
2022-08-05T08:35:17.534Z,18.10
2022-08-05T08:40:22.085Z,17.80
2022-08-05T08:45:29.471Z,18.10
2022-08-05T08:51:03.296Z,18.30
2022-08-05T08:56:03.653Z,18.20
2022-08-05T09:01:11.037Z,18.10
2022-08-05T09:06:21.059Z,17.70
2022-08-05T09:11:52.958Z,18.10
2022-08-05T09:16:49.624Z,18.40
2022-08-05T09:22:22.813Z,18.80
2022-08-05T09:28:03.962Z,19.40
2022-08-05T09:33:02.307Z,19.70
2022-08-05T09:38:16.422Z,19.90
2022-08-05T09:43:41.933Z,20.10
2022-08-05T09:49:03.696Z,20.50
2022-08-05T09:54:09.400Z,20.30
2022-08-05T09:59:17.060Z,20.10
2022-08-05T10:04:19.761Z,20.00
2022-08-05T10:09:45.279Z,20.00
2022-08-05T10:14:47.858Z,20.60
2022-08-05T10:20:04.305Z,20.40
2022-08-05T10:25:14.449Z,20.40
2022-08-05T10:31:19.891Z,20.50
2022-08-05T10:35:40.562Z,20.10
2022-08-05T10:40:49.701Z,20.10
2022-08-05T10:46:06.163Z,21.20
2022-08-05T10:51:22.087Z,20.90
2022-08-05T10:56:30.825Z,20.90
2022-08-05T11:01:55.644Z,20.80
2022-08-05T11:07:01.721Z,20.90
2022-08-05T11:12:04.699Z,20.90
2022-08-05T11:17:58.705Z,21.30
2022-08-05T11:22:54.001Z,22.20
2022-08-05T11:28:11.696Z,22.20
2022-08-05T11:33:43.816Z,21.70
2022-08-05T11:38:51.746Z,21.80
2022-08-05T11:44:04.819Z,22.10
2022-08-05T11:49:13.671Z,22.50
2022-08-05T11:54:34.486Z,21.90
2022-08-05T11:59:49.814Z,21.80
2022-08-05T12:04:59.372Z,22.20
2022-08-05T12:10:09.329Z,22.40
2022-08-05T12:15:38.327Z,22.20
2022-08-05T12:20:42.749Z,22.60
2022-08-05T12:25:56.923Z,22.50
2022-08-05T12:31:02.059Z,22.70
2022-08-05T12:36:08.229Z,22.60
2022-08-05T12:41:16.260Z,22.80
2022-08-05T12:46:29.292Z,23.00
2022-08-05T12:52:13.827Z,24.50
2022-08-05T12:57:09.685Z,24.60
2022-08-05T13:02:15.465Z,24.10
2022-08-05T13:07:41.367Z,24.30
2022-08-05T13:12:51.233Z,24.30
2022-08-05T13:18:00.176Z,24.70
2022-08-05T13:23:07.144Z,24.40
2022-08-05T13:28:10.704Z,23.10
2022-08-05T13:33:14.349Z,21.60
2022-08-05T13:38:36.279Z,21.40
2022-08-05T13:43:54.371Z,21.20
2022-08-05T13:49:01.044Z,21.50
2022-08-05T13:54:03.731Z,21.50
2022-08-05T13:59:20.132Z,21.50
2022-08-05T14:04:42.737Z,21.60
2022-08-05T14:09:52.576Z,21.50
2022-08-05T14:14:56.112Z,21.70
2022-08-05T14:20:04.652Z,21.80
2022-08-05T14:25:21.657Z,21.90
2022-08-05T14:30:26.400Z,22.20
2022-08-05T14:35:37.226Z,22.60
2022-08-05T14:40:51.746Z,23.30
2022-08-05T14:45:54.266Z,23.20
2022-08-05T14:50:56.635Z,22.80
2022-08-05T14:55:59.302Z,22.70
2022-08-05T15:01:02.046Z,22.60
2022-08-05T15:06:07.402Z,22.80
2022-08-05T15:11:16.192Z,22.70
2022-08-05T15:16:18.704Z,23.20
2022-08-05T15:21:21.528Z,22.80
2022-08-05T15:26:32.182Z,22.60
2022-08-05T15:31:35.152Z,22.60
2022-08-05T15:36:38.061Z,22.50
2022-08-05T15:41:58.083Z,22.70
2022-08-05T15:47:01.723Z,22.70
2022-08-05T15:52:16.603Z,22.60
2022-08-05T15:57:26.906Z,22.50
2022-08-05T16:02:36.387Z,22.40
2022-08-05T16:07:38.957Z,22.40
2022-08-05T16:12:49.043Z,22.20
2022-08-05T16:17:57.504Z,22.50
2022-08-05T16:23:00.932Z,22.20
2022-08-05T16:28:06.396Z,22.20
2022-08-05T16:33:12.069Z,22.60
2022-08-05T16:38:24.255Z,22.50
2022-08-05T16:43:29.044Z,22.40
2022-08-05T16:48:33.500Z,22.50
2022-08-05T16:54:04.084Z,22.40
2022-08-05T16:59:07.574Z,22.50
2022-08-05T17:04:10.824Z,22.80
2022-08-05T17:09:13.211Z,22.70
2022-08-05T17:14:34.172Z,22.70
2022-08-05T17:19:37.178Z,22.50
2022-08-05T17:24:40.936Z,22.70
2022-08-05T17:29:52.780Z,22.80
2022-08-05T17:35:02.559Z,22.70
2022-08-05T17:40:10.303Z,22.40
2022-08-05T17:45:20.309Z,22.20
2022-08-05T17:50:29.600Z,21.90
2022-08-05T17:55:38.449Z,21.90
2022-08-05T18:00:47.904Z,21.90
2022-08-05T18:05:54.268Z,21.70
2022-08-05T18:10:56.955Z,21.50
2022-08-05T18:15:59.545Z,21.40
2022-08-05T18:21:02.951Z,21.30
2022-08-05T18:26:05.927Z,21.50
2022-08-05T18:31:10.192Z,21.70
2022-08-05T18:36:15.071Z,22.10
2022-08-05T18:41:56.033Z,21.10
2022-08-05T18:46:41.071Z,21.00
2022-08-05T18:52:08.617Z,20.90
2022-08-05T18:57:15.433Z,20.90
2022-08-05T19:02:27.732Z,20.70
2022-08-05T19:07:42.334Z,20.80
2022-08-05T19:12:49.089Z,20.60
2022-08-05T19:18:09.559Z,20.40
2022-08-05T19:24:03.774Z,20.30
2022-08-05T19:28:37.496Z,20.10
2022-08-05T19:33:48.324Z,20.10
2022-08-05T19:39:01.530Z,19.90
2022-08-05T19:44:13.685Z,19.90
2022-08-05T19:49:17.800Z,19.90
2022-08-05T19:54:22.831Z,20.00
2022-08-05T20:00:00.675Z,19.90
2022-08-05T20:04:59.007Z,19.80
2022-08-05T20:10:04.908Z,19.80
2022-08-05T20:15:48.815Z,19.70
2022-08-05T20:20:47.049Z,19.90
2022-08-05T20:25:49.475Z,18.70
2022-08-05T20:30:54.750Z,20.30
2022-08-05T20:35:57.492Z,20.40
2022-08-05T20:41:01.270Z,19.40
2022-08-05T20:46:12.521Z,19.50
2022-08-05T20:51:20.981Z,19.20
2022-08-05T20:56:31.833Z,19.00
2022-08-05T21:01:38.456Z,18.90
2022-08-05T21:06:45.236Z,19.10
2022-08-05T21:12:10.395Z,19.20
2022-08-05T21:17:10.705Z,19.20
2022-08-05T21:22:13.218Z,19.80
2022-08-05T21:27:16.901Z,19.80
2022-08-05T21:32:20.019Z,19.70
2022-08-05T21:37:22.753Z,19.70
2022-08-05T21:42:40.838Z,19.90
2022-08-05T21:47:56.846Z,20.00
2022-08-05T21:53:16.040Z,20.20
2022-08-05T21:58:19.936Z,20.20
2022-08-05T22:03:48.473Z,20.00
2022-08-05T22:08:51.823Z,19.80
2022-08-05T22:14:05.961Z,19.60
2022-08-05T22:20:01.964Z,19.60
2022-08-05T22:24:57.926Z,19.90
2022-08-05T22:30:01.535Z,19.70
2022-08-05T22:35:04.204Z,19.80
2022-08-05T22:40:07.948Z,19.70
2022-08-05T22:45:11.521Z,19.60
2022-08-05T22:50:20.707Z,19.60
2022-08-05T22:55:26.120Z,19.50
2022-08-05T23:00:28.673Z,19.50
2022-08-05T23:05:36.008Z,19.30
2022-08-05T23:10:39.259Z,19.20
2022-08-05T23:15:41.552Z,19.10
2022-08-05T23:20:45.520Z,19.00
2022-08-05T23:25:54.931Z,19.00
2022-08-05T23:31:15.756Z,19.00
2022-08-05T23:36:19.118Z,19.00
2022-08-05T23:41:21.981Z,18.80
2022-08-05T23:46:26.432Z,18.90
2022-08-05T23:51:53.947Z,18.90
2022-08-05T23:57:03.982Z,19.00
